sensor_id;sensor_type;location;lat;lon;timestamp;pressure;altitude;pressure_sealevel;temperature;humidity
16595;BME280;8410;52.532;13.336;2022-08-21T00:00:35;101073.19;;;22.29;91.73
16595;BME280;8410;52.532;13.336;2022-08-21T00:03:10;101081.69;;;22.37;92.39
16595;BME280;8410;52.532;13.336;2022-08-21T00:05:44;101078.31;;;22.03;94.01
16595;BME280;8410;52.532;13.336;2022-08-21T00:08:13;101076.34;;;21.80;94.87
16595;BME280;8410;52.532;13.336;2022-08-21T00:10:43;101082.97;;;21.94;94.16
16595;BME280;8410;52.532;13.336;2022-08-21T00:13:13;101078.19;;;21.78;93.31
16595;BME280;8410;52.532;13.336;2022-08-21T00:15:45;101089.59;;;21.76;94.00
16595;BME280;8410;52.532;13.336;2022-08-21T00:18:13;101078.53;;;21.65;94.73
16595;BME280;8410;52.532;13.336;2022-08-21T00:20:45;101077.47;;;21.73;94.02
16595;BME280;8410;52.532;13.336;2022-08-21T00:23:14;101074.84;;;21.73;93.22
16595;BME280;8410;52.532;13.336;2022-08-21T00:25:43;101071.09;;;21.51;94.89
16595;BME280;8410;52.532;13.336;2022-08-21T00:28:13;101068.38;;;21.54;94.85
16595;BME280;8410;52.532;13.336;2022-08-21T00:30:42;101073.59;;;21.85;93.99
16595;BME280;8410;52.532;13.336;2022-08-21T00:33:12;101070.44;;;21.43;94.33
16595;BME280;8410;52.532;13.336;2022-08-21T00:35:43;101073.88;;;21.76;93.19
16595;BME280;8410;52.532;13.336;2022-08-21T00:38:11;101077.16;;;21.84;93.98
16595;BME280;8410;52.532;13.336;2022-08-21T00:40:45;101076.59;;;22.02;91.92
16595;BME280;8410;52.532;13.336;2022-08-21T00:43:17;101085.94;;;21.82;94.53
16595;BME280;8410;52.532;13.336;2022-08-21T00:45:45;101081.03;;;21.71;94.22
16595;BME280;8410;52.532;13.336;2022-08-21T00:48:13;101087.19;;;21.68;94.68
16595;BME280;8410;52.532;13.336;2022-08-21T00:50:52;101088.28;;;21.59;95.73
16595;BME280;8410;52.532;13.336;2022-08-21T00:53:22;101086.41;;;21.65;95.93
16595;BME280;8410;52.532;13.336;2022-08-21T00:55:51;101079.34;;;21.98;95.46
16595;BME280;8410;52.532;13.336;2022-08-21T00:58:23;101076.72;;;21.68;96.00
16595;BME280;8410;52.532;13.336;2022-08-21T01:00:52;101072.75;;;21.53;96.92
16595;BME280;8410;52.532;13.336;2022-08-21T01:03:24;101070.00;;;21.58;97.29
16595;BME280;8410;52.532;13.336;2022-08-21T01:05:54;101076.44;;;21.46;97.71
16595;BME280;8410;52.532;13.336;2022-08-21T01:08:23;101076.59;;;21.07;100.00
16595;BME280;8410;52.532;13.336;2022-08-21T01:10:54;101072.00;;;21.15;99.99
16595;BME280;8410;52.532;13.336;2022-08-21T01:13:23;101082.09;;;21.29;100.00
16595;BME280;8410;52.532;13.336;2022-08-21T01:15:55;101080.31;;;21.64;97.82
16595;BME280;8410;52.532;13.336;2022-08-21T01:18:24;101074.03;;;21.70;94.95
16595;BME280;8410;52.532;13.336;2022-08-21T01:21:05;101075.34;;;21.55;97.50
16595;BME280;8410;52.532;13.336;2022-08-21T01:23:35;101073.13;;;21.41;97.33
16595;BME280;8410;52.532;13.336;2022-08-21T01:26:06;101074.34;;;21.59;96.12
16595;BME280;8410;52.532;13.336;2022-08-21T01:28:40;101071.72;;;21.59;97.00
16595;BME280;8410;52.532;13.336;2022-08-21T01:31:15;101074.19;;;21.65;95.15
16595;BME280;8410;52.532;13.336;2022-08-21T01:33:53;101072.28;;;21.05;96.35
16595;BME280;8410;52.532;13.336;2022-08-21T01:36:25;101068.34;;;20.88;97.08
16595;BME280;8410;52.532;13.336;2022-08-21T01:38:53;101071.25;;;20.76;96.75
16595;BME280;8410;52.532;13.336;2022-08-21T01:41:21;101076.47;;;21.12;94.35
16595;BME280;8410;52.532;13.336;2022-08-21T01:43:49;101080.72;;;21.49;92.91
16595;BME280;8410;52.532;13.336;2022-08-21T01:46:17;101082.25;;;20.90;94.51
16595;BME280;8410;52.532;13.336;2022-08-21T01:48:45;101087.41;;;21.28;91.12
16595;BME280;8410;52.532;13.336;2022-08-21T01:51:13;101083.03;;;21.28;91.64
16595;BME280;8410;52.532;13.336;2022-08-21T01:53:43;101084.53;;;21.03;90.14
16595;BME280;8410;52.532;13.336;2022-08-21T01:56:15;101087.16;;;21.35;89.12
16595;BME280;8410;52.532;13.336;2022-08-21T01:58:46;101087.25;;;21.96;86.57
16595;BME280;8410;52.532;13.336;2022-08-21T02:01:14;101075.97;;;22.52;84.04
16595;BME280;8410;52.532;13.336;2022-08-21T02:03:42;101084.25;;;22.66;83.40
16595;BME280;8410;52.532;13.336;2022-08-21T02:06:15;101082.28;;;22.17;82.59
16595;BME280;8410;52.532;13.336;2022-08-21T02:08:46;101084.59;;;21.98;84.23
16595;BME280;8410;52.532;13.336;2022-08-21T02:11:14;101091.22;;;22.39;82.59
16595;BME280;8410;52.532;13.336;2022-08-21T02:13:42;101079.66;;;22.17;81.98
16595;BME280;8410;52.532;13.336;2022-08-21T02:16:11;101088.00;;;22.31;81.84
16595;BME280;8410;52.532;13.336;2022-08-21T02:18:45;101086.66;;;22.46;81.33
16595;BME280;8410;52.532;13.336;2022-08-21T02:21:14;101082.06;;;22.53;80.53
16595;BME280;8410;52.532;13.336;2022-08-21T02:23:42;101081.72;;;22.63;80.59
16595;BME280;8410;52.532;13.336;2022-08-21T02:26:12;101086.34;;;22.55;80.81
16595;BME280;8410;52.532;13.336;2022-08-21T02:28:40;101078.97;;;22.68;81.48
16595;BME280;8410;52.532;13.336;2022-08-21T02:31:09;101076.22;;;22.71;81.32
16595;BME280;8410;52.532;13.336;2022-08-21T02:33:37;101075.53;;;22.66;81.76
16595;BME280;8410;52.532;13.336;2022-08-21T02:36:07;101078.31;;;22.61;82.21
16595;BME280;8410;52.532;13.336;2022-08-21T02:38:39;101079.41;;;22.54;82.12
16595;BME280;8410;52.532;13.336;2022-08-21T02:41:13;101079.41;;;22.54;82.38
16595;BME280;8410;52.532;13.336;2022-08-21T02:43:42;101077.28;;;22.65;81.84
16595;BME280;8410;52.532;13.336;2022-08-21T02:46:13;101073.97;;;22.60;81.85
16595;BME280;8410;52.532;13.336;2022-08-21T02:48:41;101078.97;;;22.68;81.31
16595;BME280;8410;52.532;13.336;2022-08-21T02:51:13;101074.25;;;22.51;81.74
16595;BME280;8410;52.532;13.336;2022-08-21T02:53:42;101067.59;;;22.41;81.96
16595;BME280;8410;52.532;13.336;2022-08-21T02:56:15;101077.00;;;22.18;82.17
16595;BME280;8410;52.532;13.336;2022-08-21T02:58:48;101078.28;;;22.35;82.20
16595;BME280;8410;52.532;13.336;2022-08-21T03:01:18;101076.22;;;22.15;82.57
16595;BME280;8410;52.532;13.336;2022-08-21T03:03:48;101079.56;;;22.21;81.98
16595;BME280;8410;52.532;13.336;2022-08-21T03:06:20;101072.56;;;22.22;81.25
16595;BME280;8410;52.532;13.336;2022-08-21T03:08:48;101081.44;;;22.16;81.14
16595;BME280;8410;52.532;13.336;2022-08-21T03:11:18;101084.09;;;22.15;81.58
16595;BME280;8410;52.532;13.336;2022-08-21T03:13:47;101088.59;;;22.10;81.73
16595;BME280;8410;52.532;13.336;2022-08-21T03:16:15;101074.66;;;22.09;81.14
16595;BME280;8410;52.532;13.336;2022-08-21T03:18:43;101071.09;;;22.10;80.74
16595;BME280;8410;52.532;13.336;2022-08-21T03:21:10;101071.59;;;22.24;80.51
16595;BME280;8410;52.532;13.336;2022-08-21T03:23:39;101067.78;;;22.35;79.76
16595;BME280;8410;52.532;13.336;2022-08-21T03:26:09;101076.94;;;22.21;79.84
16595;BME280;8410;52.532;13.336;2022-08-21T03:28:39;101085.09;;;22.11;80.08
16595;BME280;8410;52.532;13.336;2022-08-21T03:31:07;101077.00;;;22.18;79.39
16595;BME280;8410;52.532;13.336;2022-08-21T03:33:35;101075.28;;;22.19;79.31
16595;BME280;8410;52.532;13.336;2022-08-21T03:36:06;101075.38;;;22.14;79.38
16595;BME280;8410;52.532;13.336;2022-08-21T03:38:37;101076.31;;;22.12;79.69
16595;BME280;8410;52.532;13.336;2022-08-21T03:41:06;101072.84;;;22.11;79.40
16595;BME280;8410;52.532;13.336;2022-08-21T03:43:35;101077.00;;;22.18;79.01
16595;BME280;8410;52.532;13.336;2022-08-21T03:46:05;101075.72;;;22.02;78.89
16595;BME280;8410;52.532;13.336;2022-08-21T03:48:36;101082.69;;;22.03;79.49
16595;BME280;8410;52.532;13.336;2022-08-21T03:51:06;101087.94;;;22.03;79.65
16595;BME280;8410;52.532;13.336;2022-08-21T03:53:34;101076.72;;;21.98;78.72
16595;BME280;8410;52.532;13.336;2022-08-21T03:56:04;101082.69;;;22.03;79.25
16595;BME280;8410;52.532;13.336;2022-08-21T03:58:33;101083.81;;;21.94;78.58
16595;BME280;8410;52.532;13.336;2022-08-21T04:01:03;101082.41;;;21.83;79.10
16595;BME280;8410;52.532;13.336;2022-08-21T04:03:35;101088.19;;;21.94;78.85
16595;BME280;8410;52.532;13.336;2022-08-21T04:06:05;101091.75;;;21.93;78.50
16595;BME280;8410;52.532;13.336;2022-08-21T04:08:33;101096.97;;;21.93;78.44
16595;BME280;8410;52.532;13.336;2022-08-21T04:11:02;101096.06;;;21.94;78.00
16595;BME280;8410;52.532;13.336;2022-08-21T04:13:30;101095.19;;;21.95;77.75
16595;BME280;8410;52.532;13.336;2022-08-21T04:15:57;101097.22;;;21.84;77.86
16595;BME280;8410;52.532;13.336;2022-08-21T04:18:27;101103.25;;;21.87;77.73
16595;BME280;8410;52.532;13.336;2022-08-21T04:20:58;101097.31;;;21.80;77.85
16595;BME280;8410;52.532;13.336;2022-08-21T04:23:28;101098.41;;;21.73;78.52
16595;BME280;8410;52.532;13.336;2022-08-21T04:25:57;101097.31;;;21.80;77.85
16595;BME280;8410;52.532;13.336;2022-08-21T04:28:26;101104.72;;;21.66;78.67
16595;BME280;8410;52.532;13.336;2022-08-21T04:30:57;101099.59;;;21.93;77.50
16595;BME280;8410;52.532;13.336;2022-08-21T04:33:27;101091.94;;;21.87;77.13
16595;BME280;8410;52.532;13.336;2022-08-21T04:35:55;101099.06;;;21.82;77.75
16595;BME280;8410;52.532;13.336;2022-08-21T04:38:23;101093.81;;;21.82;77.02
16595;BME280;8410;52.532;13.336;2022-08-21T04:40:52;101095.53;;;21.83;76.87
16595;BME280;8410;52.532;13.336;2022-08-21T04:43:20;101101.03;;;21.73;77.97
16595;BME280;8410;52.532;13.336;2022-08-21T04:45:51;101099.06;;;21.82;77.18
16595;BME280;8410;52.532;13.336;2022-08-21T04:48:21;101101.91;;;21.72;77.07
16595;BME280;8410;52.532;13.336;2022-08-21T04:50:57;101106.91;;;21.82;76.97
16595;BME280;8410;52.532;13.336;2022-08-21T04:53:35;101104.09;;;21.89;77.08
16595;BME280;8410;52.532;13.336;2022-08-21T04:56:09;101101.03;;;21.73;77.61
16595;BME280;8410;52.532;13.336;2022-08-21T04:58:40;101104.44;;;21.75;77.36
16595;BME280;8410;52.532;13.336;2022-08-21T05:01:15;101109.53;;;21.82;77.47
16595;BME280;8410;52.532;13.336;2022-08-21T05:03:48;101097.16;;;21.87;77.00
16595;BME280;8410;52.532;13.336;2022-08-21T05:06:18;101104.59;;;21.71;77.29
16595;BME280;8410;52.532;13.336;2022-08-21T05:08:51;101104.13;;;21.88;76.89
16595;BME280;8410;52.532;13.336;2022-08-21T05:11:29;101116.50;;;21.83;77.34
16595;BME280;8410;52.532;13.336;2022-08-21T05:13:57;101112.38;;;21.74;77.12
16595;BME280;8410;52.532;13.336;2022-08-21T05:16:26;101113.56;;;21.62;77.03
16595;BME280;8410;52.532;13.336;2022-08-21T05:19:04;101108.66;;;21.81;76.56
16595;BME280;8410;52.532;13.336;2022-08-21T05:21:35;101110.91;;;21.64;77.43
16595;BME280;8410;52.532;13.336;2022-08-21T05:24:05;101108.91;;;21.73;76.74
16595;BME280;8410;52.532;13.336;2022-08-21T05:26:33;101107.03;;;21.77;76.93
16595;BME280;8410;52.532;13.336;2022-08-21T05:29:13;101110.63;;;21.73;76.76
16595;BME280;8410;52.532;13.336;2022-08-21T05:31:42;101115.38;;;21.60;76.64
16595;BME280;8410;52.532;13.336;2022-08-21T05:34:10;101119.38;;;21.73;76.68
16595;BME280;8410;52.532;13.336;2022-08-21T05:36:44;101121.81;;;21.79;75.91
16595;BME280;8410;52.532;13.336;2022-08-21T05:39:12;101126.97;;;21.83;76.13
16595;BME280;8410;52.532;13.336;2022-08-21T05:41:40;101130.94;;;21.66;76.71
16595;BME280;8410;52.532;13.336;2022-08-21T05:44:08;101132.91;;;21.58;77.30
16595;BME280;8410;52.532;13.336;2022-08-21T05:46:37;101133.53;;;21.66;77.26
16595;BME280;8410;52.532;13.336;2022-08-21T05:49:05;101130.09;;;21.95;76.02
16595;BME280;8410;52.532;13.336;2022-08-21T05:51:33;101129.06;;;22.01;75.57
16595;BME280;8410;52.532;13.336;2022-08-21T05:54:03;101126.78;;;21.89;74.91
16595;BME280;8410;52.532;13.336;2022-08-21T05:56:31;101133.91;;;21.84;76.53
16595;BME280;8410;52.532;13.336;2022-08-21T05:58:59;101140.94;;;22.13;74.95
16595;BME280;8410;52.532;13.336;2022-08-21T06:01:27;101136.84;;;22.04;74.91
16595;BME280;8410;52.532;13.336;2022-08-21T06:03:57;101140.09;;;21.81;75.32
16595;BME280;8410;52.532;13.336;2022-08-21T06:06:27;101139.59;;;21.99;74.77
16595;BME280;8410;52.532;13.336;2022-08-21T06:08:54;101131.78;;;21.98;74.93
16595;BME280;8410;52.532;13.336;2022-08-21T06:11:24;101137.75;;;22.03;75.11
16595;BME280;8410;52.532;13.336;2022-08-21T06:13:55;101141.69;;;22.19;73.88
16595;BME280;8410;52.532;13.336;2022-08-21T06:16:23;101135.00;;;21.76;76.25
16595;BME280;8410;52.532;13.336;2022-08-21T06:18:51;101139.59;;;21.68;75.64
16595;BME280;8410;52.532;13.336;2022-08-21T06:21:19;101134.03;;;22.10;74.88
16595;BME280;8410;52.532;13.336;2022-08-21T06:23:47;101129.50;;;22.17;75.22
16595;BME280;8410;52.532;13.336;2022-08-21T06:26:15;101131.19;;;22.19;74.61
16595;BME280;8410;52.532;13.336;2022-08-21T06:28:45;101139.56;;;22.01;75.03
16595;BME280;8410;52.532;13.336;2022-08-21T06:31:17;101130.25;;;22.50;73.49
16595;BME280;8410;52.532;13.336;2022-08-21T06:33:46;101136.44;;;22.48;73.31
16595;BME280;8410;52.532;13.336;2022-08-21T06:36:14;101138.59;;;22.35;73.10
16595;BME280;8410;52.532;13.336;2022-08-21T06:38:42;101142.28;;;22.57;72.89
16595;BME280;8410;52.532;13.336;2022-08-21T06:41:19;101131.78;;;22.57;72.32
16595;BME280;8410;52.532;13.336;2022-08-21T06:43:51;101135.97;;;22.63;72.42
16595;BME280;8410;52.532;13.336;2022-08-21T06:46:19;101138.94;;;22.52;73.14
16595;BME280;8410;52.532;13.336;2022-08-21T06:48:47;101139.47;;;22.35;73.51
16595;BME280;8410;52.532;13.336;2022-08-21T06:51:16;101142.59;;;22.48;72.63
16595;BME280;8410;52.532;13.336;2022-08-21T06:53:44;101136.56;;;22.73;71.94
16595;BME280;8410;52.532;13.336;2022-08-21T06:56:12;101146.06;;;21.88;74.74
16595;BME280;8410;52.532;13.336;2022-08-21T06:58:40;101136.16;;;22.29;73.97
16595;BME280;8410;52.532;13.336;2022-08-21T07:01:09;101133.03;;;22.45;72.96
16595;BME280;8410;52.532;13.336;2022-08-21T07:03:39;101130.78;;;22.61;72.49
16595;BME280;8410;52.532;13.336;2022-08-21T07:06:09;101139.88;;;22.21;73.08
16595;BME280;8410;52.532;13.336;2022-08-21T07:08:38;101132.25;;;22.70;71.96
16595;BME280;8410;52.532;13.336;2022-08-21T07:11:12;101131.63;;;22.34;72.87
16595;BME280;8410;52.532;13.336;2022-08-21T07:13:42;101135.03;;;22.65;72.56
16595;BME280;8410;52.532;13.336;2022-08-21T07:16:12;101133.22;;;22.67;72.11
16595;BME280;8410;52.532;13.336;2022-08-21T07:18:40;101126.34;;;22.63;72.36
16595;BME280;8410;52.532;13.336;2022-08-21T07:21:09;101127.59;;;22.52;73.45
16595;BME280;8410;52.532;13.336;2022-08-21T07:23:40;101123.38;;;23.02;70.81
16595;BME280;8410;52.532;13.336;2022-08-21T07:26:09;101122.59;;;22.99;71.02
16595;BME280;8410;52.532;13.336;2022-08-21T07:28:38;101125.84;;;22.79;71.92
16595;BME280;8410;52.532;13.336;2022-08-21T07:31:06;101129.97;;;22.59;70.48
16595;BME280;8410;52.532;13.336;2022-08-21T07:33:36;101118.09;;;23.29;69.45
16595;BME280;8410;52.532;13.336;2022-08-21T07:36:04;101116.38;;;23.28;69.16
16595;BME280;8410;52.532;13.336;2022-08-21T07:38:32;101114.06;;;23.19;68.87
16595;BME280;8410;52.532;13.336;2022-08-21T07:41:01;101113.72;;;23.03;68.80
16595;BME280;8410;52.532;13.336;2022-08-21T07:43:29;101124.00;;;21.64;71.78
16595;BME280;8410;52.532;13.336;2022-08-21T07:45:57;101121.38;;;22.54;68.77
16595;BME280;8410;52.532;13.336;2022-08-21T07:48:25;101115.16;;;22.85;67.55
16595;BME280;8410;52.532;13.336;2022-08-21T07:50:55;101120.84;;;23.26;67.69
16595;BME280;8410;52.532;13.336;2022-08-21T07:53:23;101117.81;;;23.11;66.05
16595;BME280;8410;52.532;13.336;2022-08-21T07:55:50;101119.13;;;22.98;66.44
16595;BME280;8410;52.532;13.336;2022-08-21T07:58:18;101124.38;;;22.98;66.73
16595;BME280;8410;52.532;13.336;2022-08-21T08:00:46;101118.72;;;23.10;66.29
16595;BME280;8410;52.532;13.336;2022-08-21T08:03:14;101125.41;;;22.38;66.33
16595;BME280;8410;52.532;13.336;2022-08-21T08:05:56;101119.00;;;23.28;66.53
16595;BME280;8410;52.532;13.336;2022-08-21T08:08:26;101113.88;;;23.50;64.72
16595;BME280;8410;52.532;13.336;2022-08-21T08:10:56;101120.09;;;22.67;65.79
16595;BME280;8410;52.532;13.336;2022-08-21T08:13:25;101120.44;;;21.97;68.83
16595;BME280;8410;52.532;13.336;2022-08-21T08:15:53;101114.19;;;22.33;67.51
16595;BME280;8410;52.532;13.336;2022-08-21T08:18:21;101118.56;;;21.71;67.82
16595;BME280;8410;52.532;13.336;2022-08-21T08:20:49;101119.31;;;22.06;66.21
16595;BME280;8410;52.532;13.336;2022-08-21T08:23:18;101116.16;;;21.95;67.44
16595;BME280;8410;52.532;13.336;2022-08-21T08:25:46;101115.63;;;22.43;67.34
16595;BME280;8410;52.532;13.336;2022-08-21T08:28:14;101108.28;;;23.34;64.88
16595;BME280;8410;52.532;13.336;2022-08-21T08:30:44;101120.22;;;22.63;64.74
16595;BME280;8410;52.532;13.336;2022-08-21T08:33:14;101114.63;;;22.74;64.82
16595;BME280;8410;52.532;13.336;2022-08-21T08:35:45;101126.25;;;22.07;63.93
16595;BME280;8410;52.532;13.336;2022-08-21T08:38:15;101129.94;;;21.38;64.65
16595;BME280;8410;52.532;13.336;2022-08-21T08:40:58;101130.38;;;21.55;66.25
16595;BME280;8410;52.532;13.336;2022-08-21T08:43:30;101128.88;;;22.07;64.39
16595;BME280;8410;52.532;13.336;2022-08-21T08:46:04;101127.72;;;22.17;64.37
16595;BME280;8410;52.532;13.336;2022-08-21T08:48:47;101132.41;;;21.76;65.37
16595;BME280;8410;52.532;13.336;2022-08-21T08:51:25;101126.34;;;22.04;63.78
16595;BME280;8410;52.532;13.336;2022-08-21T08:54:00;101129.28;;;21.62;65.26
16595;BME280;8410;52.532;13.336;2022-08-21T08:56:33;101119.75;;;21.91;64.83
16595;BME280;8410;52.532;13.336;2022-08-21T08:59:09;101116.75;;;22.62;63.34
16595;BME280;8410;52.532;13.336;2022-08-21T09:01:41;101118.28;;;21.80;65.07
16595;BME280;8410;52.532;13.336;2022-08-21T09:04:10;101122.81;;;22.05;64.26
16595;BME280;8410;52.532;13.336;2022-08-21T09:07:09;101111.97;;;22.17;64.18
16595;BME280;8410;52.532;13.336;2022-08-21T09:10:02;101116.06;;;21.98;63.64
16595;BME280;8410;52.532;13.336;2022-08-21T09:12:46;101121.31;;;21.98;64.83
16595;BME280;8410;52.532;13.336;2022-08-21T09:15:29;101117.34;;;22.13;63.37
16595;BME280;8410;52.532;13.336;2022-08-21T09:18:17;101119.03;;;22.15;63.02
16595;BME280;8410;52.532;13.336;2022-08-21T09:20:59;101123.91;;;21.98;63.13
16595;BME280;8410;52.532;13.336;2022-08-21T09:23:40;101117.66;;;22.88;62.11
16595;BME280;8410;52.532;13.336;2022-08-21T09:26:14;101116.00;;;22.31;63.42
16595;BME280;8410;52.532;13.336;2022-08-21T09:28:46;101114.78;;;22.97;61.47
16595;BME280;8410;52.532;13.336;2022-08-21T09:31:24;101121.22;;;22.01;62.77
16595;BME280;8410;52.532;13.336;2022-08-21T09:33:58;101116.88;;;22.00;63.74
16595;BME280;8410;52.532;13.336;2022-08-21T09:36:39;101115.97;;;22.32;62.71
16595;BME280;8410;52.532;13.336;2022-08-21T09:39:11;101110.50;;;22.66;61.35
16595;BME280;8410;52.532;13.336;2022-08-21T09:41:40;101107.59;;;23.29;59.58
16595;BME280;8410;52.532;13.336;2022-08-21T09:44:09;101106.84;;;22.72;60.83
16595;BME280;8410;52.532;13.336;2022-08-21T09:46:37;101101.13;;;22.86;60.89
16595;BME280;8410;52.532;13.336;2022-08-21T09:49:06;101101.53;;;23.27;59.35
16595;BME280;8410;52.532;13.336;2022-08-21T09:51:51;101108.47;;;22.18;61.56
16595;BME280;8410;52.532;13.336;2022-08-21T09:54:29;101107.03;;;22.93;60.75
16595;BME280;8410;52.532;13.336;2022-08-21T09:57:00;101105.53;;;22.57;61.17
16595;BME280;8410;52.532;13.336;2022-08-21T09:59:47;101104.50;;;23.41;59.02
16595;BME280;8410;52.532;13.336;2022-08-21T10:02:26;101112.81;;;24.03;58.20
16595;BME280;8410;52.532;13.336;2022-08-21T10:04:59;101115.63;;;22.98;58.68
16595;BME280;8410;52.532;13.336;2022-08-21T10:07:31;101107.84;;;23.21;59.20
16595;BME280;8410;52.532;13.336;2022-08-21T10:10:04;101107.09;;;23.18;59.18
16595;BME280;8410;52.532;13.336;2022-08-21T10:12:48;101105.50;;;22.59;60.82
16595;BME280;8410;52.532;13.336;2022-08-21T10:15:29;101106.03;;;22.42;61.16
16595;BME280;8410;52.532;13.336;2022-08-21T10:18:10;101100.19;;;23.15;59.28
16595;BME280;8410;52.532;13.336;2022-08-21T10:20:47;101105.09;;;22.99;59.18
16595;BME280;8410;52.532;13.336;2022-08-21T10:23:36;101107.97;;;22.90;59.07
16595;BME280;8410;52.532;13.336;2022-08-21T10:26:26;101104.63;;;23.13;58.43
16595;BME280;8410;52.532;13.336;2022-08-21T10:29:07;101105.66;;;23.34;58.41
16595;BME280;8410;52.532;13.336;2022-08-21T10:31:51;101110.38;;;22.98;57.32
16595;BME280;8410;52.532;13.336;2022-08-21T10:34:35;101102.84;;;23.64;55.80
16595;BME280;8410;52.532;13.336;2022-08-21T10:37:21;101105.22;;;23.46;57.06
16595;BME280;8410;52.532;13.336;2022-08-21T10:40:10;101110.44;;;23.48;57.37
16595;BME280;8410;52.532;13.336;2022-08-21T10:43:09;101101.63;;;23.49;57.28
16595;BME280;8410;52.532;13.336;2022-08-21T10:45:59;101102.66;;;23.45;57.14
16595;BME280;8410;52.532;13.336;2022-08-21T10:48:37;101102.44;;;23.51;56.44
16595;BME280;8410;52.532;13.336;2022-08-21T10:51:17;101105.16;;;23.73;55.72
16595;BME280;8410;52.532;13.336;2022-08-21T10:54:03;101098.84;;;23.53;54.47
16595;BME280;8410;52.532;13.336;2022-08-21T10:56:39;101106.66;;;23.30;55.36
16595;BME280;8410;52.532;13.336;2022-08-21T10:59:26;101102.16;;;23.59;55.00
16595;BME280;8410;52.532;13.336;2022-08-21T11:02:10;101098.41;;;24.13;53.82
16595;BME280;8410;52.532;13.336;2022-08-21T11:04:59;101104.47;;;24.38;52.92
16595;BME280;8410;52.532;13.336;2022-08-21T11:07:35;101089.00;;;24.29;50.71
16595;BME280;8410;52.532;13.336;2022-08-21T11:10:10;101094.94;;;24.58;51.69
16595;BME280;8410;52.532;13.336;2022-08-21T11:12:44;101086.44;;;24.94;50.77
16595;BME280;8410;52.532;13.336;2022-08-21T11:15:30;101096.41;;;24.65;49.81
16595;BME280;8410;52.532;13.336;2022-08-21T11:18:15;101098.66;;;24.07;50.20
16595;BME280;8410;52.532;13.336;2022-08-21T11:21:02;101098.16;;;24.19;49.91
16595;BME280;8410;52.532;13.336;2022-08-21T11:23:42;101099.78;;;23.76;50.21
16595;BME280;8410;52.532;13.336;2022-08-21T11:26:19;101099.00;;;23.97;50.61
16595;BME280;8410;52.532;13.336;2022-08-21T11:28:58;101085.63;;;24.04;49.48
16595;BME280;8410;52.532;13.336;2022-08-21T11:31:45;101090.16;;;23.76;50.19
16595;BME280;8410;52.532;13.336;2022-08-21T11:34:30;101087.63;;;23.73;49.70
16595;BME280;8410;52.532;13.336;2022-08-21T11:37:12;101091.56;;;24.09;49.86
16595;BME280;8410;52.532;13.336;2022-08-21T11:40:00;101086.06;;;24.15;48.93
16595;BME280;8410;52.532;13.336;2022-08-21T11:42:39;101091.19;;;23.71;50.54
16595;BME280;8410;52.532;13.336;2022-08-21T11:45:22;101090.66;;;24.10;50.01
16595;BME280;8410;52.532;13.336;2022-08-21T11:48:07;101089.28;;;23.99;50.42
16595;BME280;8410;52.532;13.336;2022-08-21T11:50:42;101082.94;;;24.51;50.66
16595;BME280;8410;52.532;13.336;2022-08-21T11:53:17;101080.91;;;24.57;49.65
16595;BME280;8410;52.532;13.336;2022-08-21T11:55:53;101076.19;;;24.43;49.76
16595;BME280;8410;52.532;13.336;2022-08-21T11:58:32;101083.06;;;24.48;49.44
16595;BME280;8410;52.532;13.336;2022-08-21T12:01:08;101091.00;;;24.01;49.66
16595;BME280;8410;52.532;13.336;2022-08-21T12:03:41;101080.16;;;24.76;48.67
16595;BME280;8410;52.532;13.336;2022-08-21T12:06:13;101085.91;;;23.96;50.32
16595;BME280;8410;52.532;13.336;2022-08-21T12:09:01;101082.97;;;24.27;49.84
16595;BME280;8410;52.532;13.336;2022-08-21T12:11:30;101081.91;;;24.31;48.73
16595;BME280;8410;52.532;13.336;2022-08-21T12:14:13;101082.16;;;24.03;49.09
16595;BME280;8410;52.532;13.336;2022-08-21T12:16:43;101077.88;;;24.23;48.44
16595;BME280;8410;52.532;13.336;2022-08-21T12:19:28;101077.34;;;23.91;49.98
16595;BME280;8410;52.532;13.336;2022-08-21T12:22:08;101065.63;;;24.87;49.14
16595;BME280;8410;52.532;13.336;2022-08-21T12:24:42;101062.31;;;25.25;48.59
16595;BME280;8410;52.532;13.336;2022-08-21T12:27:23;101061.66;;;24.57;49.24
16595;BME280;8410;52.532;13.336;2022-08-21T12:29:59;101063.34;;;24.58;49.24
16595;BME280;8410;52.532;13.336;2022-08-21T12:32:31;101064.16;;;24.60;49.29
16595;BME280;8410;52.532;13.336;2022-08-21T12:35:15;101061.66;;;24.77;48.86
16595;BME280;8410;52.532;13.336;2022-08-21T12:37:59;101060.50;;;25.05;47.74
16595;BME280;8410;52.532;13.336;2022-08-21T12:40:39;101065.28;;;24.31;50.08
16595;BME280;8410;52.532;13.336;2022-08-21T12:43:17;101057.41;;;24.95;48.70
16595;BME280;8410;52.532;13.336;2022-08-21T12:45:49;101055.25;;;24.40;49.26
16595;BME280;8410;52.532;13.336;2022-08-21T12:48:26;101062.56;;;24.32;50.37
16595;BME280;8410;52.532;13.336;2022-08-21T12:50:58;101055.28;;;24.62;49.63
16595;BME280;8410;52.532;13.336;2022-08-21T12:53:32;101060.06;;;24.29;50.69
16595;BME280;8410;52.532;13.336;2022-08-21T12:56:09;101057.44;;;24.29;50.70
16595;BME280;8410;52.532;13.336;2022-08-21T12:58:44;101054.59;;;25.00;50.45
16595;BME280;8410;52.532;13.336;2022-08-21T13:01:20;101048.41;;;24.58;50.00
16595;BME280;8410;52.532;13.336;2022-08-21T13:03:52;101046.75;;;24.56;50.43
16595;BME280;8410;52.532;13.336;2022-08-21T13:06:38;101051.03;;;24.36;50.83
16595;BME280;8410;52.532;13.336;2022-08-21T13:09:11;101051.13;;;24.57;50.74
16595;BME280;8410;52.532;13.336;2022-08-21T13:11:45;101050.34;;;24.75;51.12
16595;BME280;8410;52.532;13.336;2022-08-21T13:14:24;101045.47;;;25.48;49.44
16595;BME280;8410;52.532;13.336;2022-08-21T13:16:54;101044.56;;;25.08;49.71
16595;BME280;8410;52.532;13.336;2022-08-21T13:19:26;101046.09;;;24.51;50.86